Aérodrome :
LOGIN :

S'inscrire | Disclaimer

   EN    FR    IT 

 










Légende :    VFR   VFR Marginal   IFR   IFR Intensif   IFR Très Intensif
Visi : 
Plafond : 
>= 8 km
>= 3000ft
5 à 8 km
1000 à 3000 ft
1500m à 5 km
500 à 1000 ft
800 à 1500m
200 à 500 ft
< 800m
< 200 ft
Symboles :   Orages  Brouillard  Fortes neiges  Fortes précipitations  Vent > 20 kt
SIGMETs :   Divers  Orages  Givrage  Turbulence  Onde Orograph.  Cendres Volcan.







- Altitude de l'aérodrome : 648 ft
- Code IATA : INI


LYNI - Nis Constantine

DERNIER METAR :
  • 151800Z 30004KT 250V350 9999 FEW040 21/11 Q1011 NOSIG

METARs EXPIRÉS :
  • 151730Z 31009KT 280V340 9999 FEW050 22/11 Q1011 NOSIG
  • 151700Z 32012KT 9999 FEW050 23/11 Q1010 NOSIG
  • 151630Z 32012KT 290V350 9999 FEW050 23/11 Q1010 NOSIG
  • 151600Z 30007KT 260V010 9999 FEW050 24/14 Q1010 NOSIG
  • 151530Z 29008KT 260V330 9999 FEW040 24/13 Q1010 NOSIG

TAF TAF LYNI
Valide du 15 à 18h jusqu'au 16 à 18h UTC


151700Z 1518/1618 32006KT CAVOK TX26/1613Z TN13/1603Z
TEMPO 1611/1616 32016KT
Pas de NOTAMs connus pour ce terrain.



MET'MAP, la Météo Aéronautique d'un coup d'oeil ! - Copyright ORBIFLY Décembre 2007 - Disclaimer

ORBIFLY MET'MAP TEAM :

Programmation & Développement : Alexandra Zaïnal
Conception & Développement : Baudouin d'Aumeries
Co-Programmation & Développement : Marc-Olivier Méhu
Soutien technique & logistique : Manuel Goepfert

Contact : metmap@orbifly.com




SOURCES & CREDITS :

   NOAA